sensor_id;sensor_type;location;lat;lon;timestamp;pressure;altitude;pressure_sealevel;temperature;humidity
9855;BME280;4966;48.112;9.282;2022-08-25T00:01:14;94837.31;;;18.62;74.45
9855;BME280;4966;48.112;9.282;2022-08-25T00:03:41;94839.25;;;18.51;74.95
9855;BME280;4966;48.112;9.282;2022-08-25T00:06:08;94833.66;;;18.40;75.50
9855;BME280;4966;48.112;9.282;2022-08-25T00:08:34;94829.31;;;18.36;75.64
9855;BME280;4966;48.112;9.282;2022-08-25T00:11:03;94828.63;;;18.53;74.84
9855;BME280;4966;48.112;9.282;2022-08-25T00:13:29;94831.38;;;18.53;74.67
9855;BME280;4966;48.112;9.282;2022-08-25T00:15:55;94827.03;;;18.52;74.81
9855;BME280;4966;48.112;9.282;2022-08-25T00:18:20;94825.81;;;18.46;75.13
9855;BME280;4966;48.112;9.282;2022-08-25T00:20:47;94826.19;;;18.37;75.66
9855;BME280;4966;48.112;9.282;2022-08-25T00:23:12;94831.28;;;18.39;75.37
9855;BME280;4966;48.112;9.282;2022-08-25T00:25:38;94829.72;;;18.34;75.63
9855;BME280;4966;48.112;9.282;2022-08-25T00:28:03;94831.31;;;18.42;75.12
9855;BME280;4966;48.112;9.282;2022-08-25T00:30:29;94834.44;;;18.41;75.28
9855;BME280;4966;48.112;9.282;2022-08-25T00:32:54;94835.22;;;18.34;75.52
9855;BME280;4966;48.112;9.282;2022-08-25T00:35:20;94832.47;;;18.34;75.77
9855;BME280;4966;48.112;9.282;2022-08-25T00:37:45;94832.84;;;18.33;75.83
9855;BME280;4966;48.112;9.282;2022-08-25T00:40:11;94832.81;;;18.29;75.85
9855;BME280;4966;48.112;9.282;2022-08-25T00:42:36;94839.16;;;18.37;75.66
9855;BME280;4966;48.112;9.282;2022-08-25T00:45:05;94834.41;;;18.34;75.64
9855;BME280;4966;48.112;9.282;2022-08-25T00:47:31;94835.28;;;18.45;75.11
9855;BME280;4966;48.112;9.282;2022-08-25T00:49:58;94841.00;;;18.18;76.47
9855;BME280;4966;48.112;9.282;2022-08-25T00:52:31;94821.78;;;18.25;76.01
9855;BME280;4966;48.112;9.282;2022-08-25T00:57:29;94829.31;;;18.32;75.48
9855;BME280;4966;48.112;9.282;2022-08-25T00:59:55;94818.59;;;18.20;76.01
9855;BME280;4966;48.112;9.282;2022-08-25T01:02:21;94814.66;;;18.21;75.93
9855;BME280;4966;48.112;9.282;2022-08-25T01:04:48;94818.94;;;18.11;76.55
9855;BME280;4966;48.112;9.282;2022-08-25T01:07:15;94820.00;;;17.96;76.98
9855;BME280;4966;48.112;9.282;2022-08-25T01:09:41;94822.22;;;17.79;77.88
9855;BME280;4966;48.112;9.282;2022-08-25T01:12:08;94819.81;;;17.74;78.07
9855;BME280;4966;48.112;9.282;2022-08-25T01:14:34;94825.28;;;17.71;78.88
9855;BME280;4966;48.112;9.282;2022-08-25T01:17:00;94820.13;;;17.65;78.82
9855;BME280;4966;48.112;9.282;2022-08-25T01:19:27;94824.03;;;17.64;78.35
9855;BME280;4966;48.112;9.282;2022-08-25T01:21:53;94824.72;;;17.51;78.58
9855;BME280;4966;48.112;9.282;2022-08-25T01:24:45;94828.59;;;17.46;78.68
9855;BME280;4966;48.112;9.282;2022-08-25T01:27:11;94816.34;;;17.40;79.18
9855;BME280;4966;48.112;9.282;2022-08-25T01:29:38;94810.81;;;17.36;80.22
9855;BME280;4966;48.112;9.282;2022-08-25T01:32:06;94827.19;;;17.26;80.47
9855;BME280;4966;48.112;9.282;2022-08-25T01:34:36;94815.19;;;17.41;79.96
9855;BME280;4966;48.112;9.282;2022-08-25T01:37:03;94813.56;;;17.36;80.67
9855;BME280;4966;48.112;9.282;2022-08-25T01:39:30;94807.75;;;17.45;80.44
9855;BME280;4966;48.112;9.282;2022-08-25T01:42:08;94801.03;;;17.42;79.37
9855;BME280;4966;48.112;9.282;2022-08-25T01:44:41;94804.50;;;17.32;81.19
9855;BME280;4966;48.112;9.282;2022-08-25T01:47:08;94806.00;;;17.26;81.59
9855;BME280;4966;48.112;9.282;2022-08-25T01:49:35;94812.31;;;17.27;81.92
9855;BME280;4966;48.112;9.282;2022-08-25T01:54:31;94811.31;;;17.08;79.81
9855;BME280;4966;48.112;9.282;2022-08-25T01:56:57;94812.38;;;16.96;80.10
9855;BME280;4966;48.112;9.282;2022-08-25T01:59:24;94815.56;;;17.02;79.78
9855;BME280;4966;48.112;9.282;2022-08-25T02:01:51;94811.84;;;16.84;80.51
9855;BME280;4966;48.112;9.282;2022-08-25T02:04:16;94813.66;;;16.76;80.42
9855;BME280;4966;48.112;9.282;2022-08-25T02:06:42;94814.31;;;16.66;81.07
9855;BME280;4966;48.112;9.282;2022-08-25T02:09:13;94804.97;;;16.70;80.81
9855;BME280;4966;48.112;9.282;2022-08-25T02:11:41;94815.84;;;16.59;81.08
9855;BME280;4966;48.112;9.282;2022-08-25T02:14:09;94820.13;;;16.57;81.16
9855;BME280;4966;48.112;9.282;2022-08-25T02:16:37;94809.03;;;16.50;81.25
9855;BME280;4966;48.112;9.282;2022-08-25T02:19:06;94820.94;;;16.61;80.85
9855;BME280;4966;48.112;9.282;2022-08-25T02:21:32;94814.09;;;16.48;81.35
9855;BME280;4966;48.112;9.282;2022-08-25T02:23:58;94812.91;;;16.45;81.68
9855;BME280;4966;48.112;9.282;2022-08-25T02:26:23;94809.97;;;16.31;82.43
9855;BME280;4966;48.112;9.282;2022-08-25T02:28:50;94812.59;;;16.24;82.98
9855;BME280;4966;48.112;9.282;2022-08-25T02:31:16;94806.09;;;16.35;82.96
9855;BME280;4966;48.112;9.282;2022-08-25T02:33:42;94805.28;;;16.35;82.50
9855;BME280;4966;48.112;9.282;2022-08-25T02:36:07;94809.53;;;16.29;82.35
9855;BME280;4966;48.112;9.282;2022-08-25T02:38:33;94811.78;;;16.23;81.95
9855;BME280;4966;48.112;9.282;2022-08-25T02:40:59;94812.59;;;16.24;82.12
9855;BME280;4966;48.112;9.282;2022-08-25T02:43:27;94810.22;;;16.22;81.49
9855;BME280;4966;48.112;9.282;2022-08-25T02:45:53;94808.44;;;16.07;81.92
9855;BME280;4966;48.112;9.282;2022-08-25T02:48:19;94805.53;;;15.96;82.66
9855;BME280;4966;48.112;9.282;2022-08-25T02:50:49;94810.34;;;16.03;81.90
9855;BME280;4966;48.112;9.282;2022-08-25T02:53:17;94815.72;;;15.95;81.83
9855;BME280;4966;48.112;9.282;2022-08-25T02:55:43;94801.25;;;15.99;81.87
9855;BME280;4966;48.112;9.282;2022-08-25T02:58:08;94805.06;;;15.90;83.31
9855;BME280;4966;48.112;9.282;2022-08-25T03:00:35;94810.91;;;15.89;83.65
9855;BME280;4966;48.112;9.282;2022-08-25T03:03:00;94812.09;;;15.88;82.91
9855;BME280;4966;48.112;9.282;2022-08-25T03:05:26;94798.97;;;15.78;83.09
9855;BME280;4966;48.112;9.282;2022-08-25T03:07:51;94803.44;;;15.86;83.29
9855;BME280;4966;48.112;9.282;2022-08-25T03:10:17;94802.41;;;15.71;83.88
9855;BME280;4966;48.112;9.282;2022-08-25T03:12:45;94802.75;;;15.69;84.62
9855;BME280;4966;48.112;9.282;2022-08-25T03:15:12;94813.28;;;15.67;85.23
9855;BME280;4966;48.112;9.282;2022-08-25T03:17:41;94805.69;;;15.57;85.51
9855;BME280;4966;48.112;9.282;2022-08-25T03:20:08;94807.03;;;15.67;83.98
9855;BME280;4966;48.112;9.282;2022-08-25T03:22:33;94811.72;;;15.66;83.42
9855;BME280;4966;48.112;9.282;2022-08-25T03:25:00;94804.34;;;15.47;84.67
9855;BME280;4966;48.112;9.282;2022-08-25T03:27:44;94810.56;;;15.44;85.95
9855;BME280;4966;48.112;9.282;2022-08-25T03:30:10;94815.56;;;15.62;85.08
9855;BME280;4966;48.112;9.282;2022-08-25T03:32:36;94799.03;;;15.58;83.44
9855;BME280;4966;48.112;9.282;2022-08-25T03:35:03;94809.72;;;15.40;84.28
9855;BME280;4966;48.112;9.282;2022-08-25T03:37:28;94795.81;;;15.52;83.36
9855;BME280;4966;48.112;9.282;2022-08-25T03:39:54;94791.06;;;15.49;83.33
9855;BME280;4966;48.112;9.282;2022-08-25T03:42:19;94792.84;;;15.38;83.90
9855;BME280;4966;48.112;9.282;2022-08-25T03:44:45;94788.69;;;15.48;84.73
9855;BME280;4966;48.112;9.282;2022-08-25T03:47:10;94785.78;;;15.37;85.12
9855;BME280;4966;48.112;9.282;2022-08-25T03:49:35;94783.63;;;15.27;85.35
9855;BME280;4966;48.112;9.282;2022-08-25T03:52:01;94789.41;;;15.22;86.05
9855;BME280;4966;48.112;9.282;2022-08-25T03:54:27;94789.84;;;15.24;85.72
9855;BME280;4966;48.112;9.282;2022-08-25T03:56:53;94778.69;;;15.36;84.57
9855;BME280;4966;48.112;9.282;2022-08-25T03:59:19;94787.28;;;15.12;85.13
9855;BME280;4966;48.112;9.282;2022-08-25T04:01:45;94789.59;;;15.09;85.34
9855;BME280;4966;48.112;9.282;2022-08-25T04:04:12;94788.72;;;15.05;85.51
9855;BME280;4966;48.112;9.282;2022-08-25T04:06:39;94793.50;;;14.89;87.24
9855;BME280;4966;48.112;9.282;2022-08-25T04:09:05;94800.41;;;15.02;86.87
9855;BME280;4966;48.112;9.282;2022-08-25T04:11:31;94796.72;;;15.14;85.41
9855;BME280;4966;48.112;9.282;2022-08-25T04:13:57;94802.00;;;15.03;86.11
9855;BME280;4966;48.112;9.282;2022-08-25T04:16:27;94798.16;;;15.08;86.78
9855;BME280;4966;48.112;9.282;2022-08-25T04:18:54;94801.50;;;14.98;87.05
9855;BME280;4966;48.112;9.282;2022-08-25T04:21:20;94806.91;;;15.14;86.47
9855;BME280;4966;48.112;9.282;2022-08-25T04:23:48;94811.56;;;15.13;84.40
9855;BME280;4966;48.112;9.282;2022-08-25T04:26:17;94813.22;;;15.18;82.79
9855;BME280;4966;48.112;9.282;2022-08-25T04:28:44;94809.06;;;15.04;83.67
9855;BME280;4966;48.112;9.282;2022-08-25T04:31:12;94808.16;;;14.97;84.21
9855;BME280;4966;48.112;9.282;2022-08-25T04:33:38;94809.81;;;15.01;84.05
9855;BME280;4966;48.112;9.282;2022-08-25T04:36:05;94799.19;;;15.00;84.60
9855;BME280;4966;48.112;9.282;2022-08-25T04:38:31;94797.97;;;14.97;84.86
9855;BME280;4966;48.112;9.282;2022-08-25T04:40:59;94803.97;;;14.83;85.42
9855;BME280;4966;48.112;9.282;2022-08-25T04:43:25;94794.63;;;14.84;85.66
9855;BME280;4966;48.112;9.282;2022-08-25T04:45:51;94802.28;;;14.98;84.82
9855;BME280;4966;48.112;9.282;2022-08-25T04:48:17;94803.03;;;14.95;85.41
9855;BME280;4966;48.112;9.282;2022-08-25T04:50:43;94797.78;;;14.86;85.82
9855;BME280;4966;48.112;9.282;2022-08-25T04:53:09;94797.06;;;14.89;86.19
9855;BME280;4966;48.112;9.282;2022-08-25T04:55:45;94793.25;;;14.94;86.04
9855;BME280;4966;48.112;9.282;2022-08-25T04:58:12;94795.69;;;14.99;85.13
9855;BME280;4966;48.112;9.282;2022-08-25T05:00:39;94788.91;;;14.93;86.45
9855;BME280;4966;48.112;9.282;2022-08-25T05:03:04;94795.84;;;15.10;85.39
9855;BME280;4966;48.112;9.282;2022-08-25T05:05:31;94788.50;;;15.14;85.41
9855;BME280;4966;48.112;9.282;2022-08-25T05:07:59;94791.13;;;15.07;85.69
9855;BME280;4966;48.112;9.282;2022-08-25T05:10:24;94793.06;;;15.29;83.64
9855;BME280;4966;48.112;9.282;2022-08-25T05:12:50;94788.75;;;15.28;83.49
9855;BME280;4966;48.112;9.282;2022-08-25T05:15:15;94782.22;;;15.37;83.25
9855;BME280;4966;48.112;9.282;2022-08-25T05:17:59;94781.75;;;15.54;83.36
9855;BME280;4966;48.112;9.282;2022-08-25T05:20:25;94788.91;;;15.62;83.09
9855;BME280;4966;48.112;9.282;2022-08-25T05:22:51;94789.00;;;15.66;83.09
9855;BME280;4966;48.112;9.282;2022-08-25T05:25:16;94784.47;;;15.77;83.05
9855;BME280;4966;48.112;9.282;2022-08-25T05:27:42;94781.91;;;15.88;83.14
9855;BME280;4966;48.112;9.282;2022-08-25T05:30:12;94788.38;;;16.03;82.57
9855;BME280;4966;48.112;9.282;2022-08-25T05:32:37;94781.56;;;16.20;81.92
9855;BME280;4966;48.112;9.282;2022-08-25T05:35:04;94775.06;;;16.31;81.45
9855;BME280;4966;48.112;9.282;2022-08-25T05:37:30;94772.00;;;16.36;81.43
9855;BME280;4966;48.112;9.282;2022-08-25T05:39:56;94762.75;;;16.52;81.10
9855;BME280;4966;48.112;9.282;2022-08-25T05:42:22;94775.84;;;16.32;81.81
9855;BME280;4966;48.112;9.282;2022-08-25T05:44:48;94774.50;;;16.49;81.81
9855;BME280;4966;48.112;9.282;2022-08-25T05:47:13;94777.06;;;16.68;81.82
9855;BME280;4966;48.112;9.282;2022-08-25T05:49:38;94774.53;;;16.83;82.55
9855;BME280;4966;48.112;9.282;2022-08-25T05:52:04;94778.03;;;17.17;81.85
9855;BME280;4966;48.112;9.282;2022-08-25T05:54:29;94782.56;;;17.39;81.83
9855;BME280;4966;48.112;9.282;2022-08-25T05:56:56;94776.47;;;17.64;80.75
9855;BME280;4966;48.112;9.282;2022-08-25T05:59:22;94771.16;;;17.82;80.44
9855;BME280;4966;48.112;9.282;2022-08-25T06:01:47;94767.69;;;17.92;80.47
9855;BME280;4966;48.112;9.282;2022-08-25T06:04:31;94766.13;;;17.95;80.73
9855;BME280;4966;48.112;9.282;2022-08-25T06:06:56;94766.34;;;18.27;79.81
9855;BME280;4966;48.112;9.282;2022-08-25T06:09:22;94762.88;;;18.44;79.55
9855;BME280;4966;48.112;9.282;2022-08-25T06:11:48;94771.91;;;18.45;81.10
9855;BME280;4966;48.112;9.282;2022-08-25T06:14:14;94775.56;;;18.67;81.65
9855;BME280;4966;48.112;9.282;2022-08-25T06:16:40;94776.41;;;18.82;82.54
9855;BME280;4966;48.112;9.282;2022-08-25T06:19:09;94783.19;;;18.99;82.67
9855;BME280;4966;48.112;9.282;2022-08-25T06:21:36;94777.72;;;19.34;81.62
9855;BME280;4966;48.112;9.282;2022-08-25T06:24:04;94779.34;;;19.50;80.50
9855;BME280;4966;48.112;9.282;2022-08-25T06:26:30;94781.75;;;19.73;79.93
9855;BME280;4966;48.112;9.282;2022-08-25T06:28:55;94779.34;;;19.50;81.12
9855;BME280;4966;48.112;9.282;2022-08-25T06:31:21;94786.88;;;19.89;78.76
9855;BME280;4966;48.112;9.282;2022-08-25T06:33:47;94785.28;;;19.95;78.73
9855;BME280;4966;48.112;9.282;2022-08-25T06:36:13;94785.66;;;20.15;76.65
9855;BME280;4966;48.112;9.282;2022-08-25T06:38:39;94784.88;;;20.22;77.66
9855;BME280;4966;48.112;9.282;2022-08-25T06:41:06;94781.25;;;20.46;77.07
9855;BME280;4966;48.112;9.282;2022-08-25T06:43:33;94773.72;;;20.65;75.94
9855;BME280;4966;48.112;9.282;2022-08-25T06:46:13;94779.28;;;20.43;75.93
9855;BME280;4966;48.112;9.282;2022-08-25T06:48:39;94764.72;;;20.28;76.80
9855;BME280;4966;48.112;9.282;2022-08-25T06:51:06;94769.03;;;20.47;76.16
9855;BME280;4966;48.112;9.282;2022-08-25T06:53:33;94760.38;;;20.27;75.90
9855;BME280;4966;48.112;9.282;2022-08-25T06:55:58;94752.47;;;20.40;76.14
9855;BME280;4966;48.112;9.282;2022-08-25T06:58:23;94751.56;;;20.75;75.71
9855;BME280;4966;48.112;9.282;2022-08-25T07:00:49;94762.66;;;20.65;75.57
9855;BME280;4966;48.112;9.282;2022-08-25T07:03:14;94767.44;;;20.39;75.80
9855;BME280;4966;48.112;9.282;2022-08-25T07:05:40;94766.59;;;20.64;75.86
9855;BME280;4966;48.112;9.282;2022-08-25T07:08:06;94767.00;;;20.51;76.19
9855;BME280;4966;48.112;9.282;2022-08-25T07:10:31;94753.16;;;20.76;75.24
9855;BME280;4966;48.112;9.282;2022-08-25T07:12:56;94757.50;;;20.70;76.38
9855;BME280;4966;48.112;9.282;2022-08-25T07:15:22;94757.00;;;20.93;74.85
9855;BME280;4966;48.112;9.282;2022-08-25T07:17:48;94751.75;;;21.13;74.67
9855;BME280;4966;48.112;9.282;2022-08-25T07:20:13;94758.78;;;21.29;73.32
9855;BME280;4966;48.112;9.282;2022-08-25T07:22:39;94757.59;;;21.26;71.96
9855;BME280;4966;48.112;9.282;2022-08-25T07:25:06;94750.44;;;21.43;72.52
9855;BME280;4966;48.112;9.282;2022-08-25T07:27:32;94754.25;;;21.60;73.12
9855;BME280;4966;48.112;9.282;2022-08-25T07:29:58;94751.44;;;21.67;72.63
9855;BME280;4966;48.112;9.282;2022-08-25T07:32:23;94743.47;;;21.73;72.44
9855;BME280;4966;48.112;9.282;2022-08-25T07:34:49;94743.06;;;21.74;70.96
9855;BME280;4966;48.112;9.282;2022-08-25T07:37:37;94750.88;;;21.83;70.43
9855;BME280;4966;48.112;9.282;2022-08-25T07:40:02;94745.84;;;21.74;70.70
9855;BME280;4966;48.112;9.282;2022-08-25T07:42:28;94744.56;;;21.82;71.56
9855;BME280;4966;48.112;9.282;2022-08-25T07:44:54;94737.88;;;21.76;70.94
9855;BME280;4966;48.112;9.282;2022-08-25T07:47:19;94738.56;;;21.91;70.03
9855;BME280;4966;48.112;9.282;2022-08-25T07:49:45;94740.44;;;22.01;69.88
9855;BME280;4966;48.112;9.282;2022-08-25T07:52:10;94740.44;;;22.01;70.00
9855;BME280;4966;48.112;9.282;2022-08-25T07:54:37;94733.94;;;22.19;69.11
9855;BME280;4966;48.112;9.282;2022-08-25T07:57:03;94728.91;;;22.10;68.15
9855;BME280;4966;48.112;9.282;2022-08-25T07:59:29;94730.41;;;21.73;69.24
9855;BME280;4966;48.112;9.282;2022-08-25T08:01:55;94734.44;;;22.10;68.83
9855;BME280;4966;48.112;9.282;2022-08-25T08:04:20;94734.84;;;22.05;68.48
9855;BME280;4966;48.112;9.282;2022-08-25T08:06:46;94742.19;;;22.29;67.02
9855;BME280;4966;48.112;9.282;2022-08-25T08:09:12;94745.25;;;22.39;67.53
9855;BME280;4966;48.112;9.282;2022-08-25T08:11:37;94745.44;;;22.55;67.11
9855;BME280;4966;48.112;9.282;2022-08-25T08:14:05;94735.00;;;22.66;68.06
9855;BME280;4966;48.112;9.282;2022-08-25T08:16:31;94732.63;;;22.34;65.15
9855;BME280;4966;48.112;9.282;2022-08-25T08:18:58;94735.28;;;22.45;65.69
9855;BME280;4966;48.112;9.282;2022-08-25T08:21:29;94738.88;;;22.42;66.12
9855;BME280;4966;48.112;9.282;2022-08-25T08:23:56;94736.72;;;22.57;66.46
9855;BME280;4966;48.112;9.282;2022-08-25T08:26:22;94741.75;;;22.96;64.99
9855;BME280;4966;48.112;9.282;2022-08-25T08:28:48;94744.38;;;23.10;64.35
9855;BME280;4966;48.112;9.282;2022-08-25T08:31:15;94751.53;;;22.77;64.63
9855;BME280;4966;48.112;9.282;2022-08-25T08:33:44;94747.94;;;22.80;65.67
9855;BME280;4966;48.112;9.282;2022-08-25T08:36:10;94748.25;;;22.86;64.09
9855;BME280;4966;48.112;9.282;2022-08-25T08:38:37;94749.03;;;22.86;64.39
9855;BME280;4966;48.112;9.282;2022-08-25T08:44:38;94750.28;;;23.12;62.63
9855;BME280;4966;48.112;9.282;2022-08-25T08:53:06;94733.28;;;23.10;63.79
9855;BME280;4966;48.112;9.282;2022-08-25T08:55:42;94735.97;;;23.45;61.55
9855;BME280;4966;48.112;9.282;2022-08-25T08:58:12;94741.97;;;23.67;62.36
9855;BME280;4966;48.112;9.282;2022-08-25T09:00:45;94739.50;;;23.72;61.13
9855;BME280;4966;48.112;9.282;2022-08-25T09:06:02;94737.13;;;23.98;59.09
9855;BME280;4966;48.112;9.282;2022-08-25T09:08:30;94738.25;;;24.24;58.45
9855;BME280;4966;48.112;9.282;2022-08-25T09:11:09;94740.81;;;24.35;58.52
9855;BME280;4966;48.112;9.282;2022-08-25T09:16:34;94748.84;;;24.53;58.04
9855;BME280;4966;48.112;9.282;2022-08-25T09:24:58;94748.53;;;24.04;56.81
9855;BME280;4966;48.112;9.282;2022-08-25T09:27:50;94744.16;;;24.26;56.83
9855;BME280;4966;48.112;9.282;2022-08-25T09:30:20;94742.47;;;24.76;55.90
9855;BME280;4966;48.112;9.282;2022-08-25T09:32:48;94746.03;;;24.76;56.49
9855;BME280;4966;48.112;9.282;2022-08-25T09:35:20;94745.50;;;24.81;55.05
9855;BME280;4966;48.112;9.282;2022-08-25T09:38:06;94740.44;;;24.76;55.20
9855;BME280;4966;48.112;9.282;2022-08-25T09:40:36;94740.75;;;24.38;55.55
9855;BME280;4966;48.112;9.282;2022-08-25T09:43:04;94744.56;;;24.68;56.87
9855;BME280;4966;48.112;9.282;2022-08-25T09:45:46;94747.91;;;24.99;55.24
9855;BME280;4966;48.112;9.282;2022-08-25T09:50:52;94738.81;;;25.35;54.33
9855;BME280;4966;48.112;9.282;2022-08-25T09:53:20;94742.28;;;25.23;54.50
9855;BME280;4966;48.112;9.282;2022-08-25T09:55:52;94739.31;;;25.30;55.50
9855;BME280;4966;48.112;9.282;2022-08-25T09:58:22;94730.16;;;24.93;54.73
9855;BME280;4966;48.112;9.282;2022-08-25T10:01:11;94731.19;;;24.83;55.11
9855;BME280;4966;48.112;9.282;2022-08-25T10:04:01;94720.66;;;25.11;53.15
9855;BME280;4966;48.112;9.282;2022-08-25T10:06:36;94713.22;;;25.40;53.30
9855;BME280;4966;48.112;9.282;2022-08-25T10:09:07;94713.88;;;25.48;52.43
9855;BME280;4966;48.112;9.282;2022-08-25T10:11:46;94716.91;;;25.54;52.93
9855;BME280;4966;48.112;9.282;2022-08-25T10:14:36;94706.03;;;25.76;53.83
9855;BME280;4966;48.112;9.282;2022-08-25T10:17:24;94712.31;;;25.96;53.60
9855;BME280;4966;48.112;9.282;2022-08-25T10:20:15;94707.31;;;26.20;51.46
9855;BME280;4966;48.112;9.282;2022-08-25T10:22:39;94693.91;;;26.44;50.50
9855;BME280;4966;48.112;9.282;2022-08-25T10:25:07;94698.69;;;26.60;50.85
9855;BME280;4966;48.112;9.282;2022-08-25T10:30:17;94680.97;;;26.50;50.71
9855;BME280;4966;48.112;9.282;2022-08-25T10:35:58;94685.81;;;26.92;47.32
9855;BME280;4966;48.112;9.282;2022-08-25T10:49:55;94678.78;;;27.00;49.28
9855;BME280;4966;48.112;9.282;2022-08-25T10:55:17;94675.75;;;26.82;47.14
9855;BME280;4966;48.112;9.282;2022-08-25T11:00:19;94670.31;;;27.55;46.63
9855;BME280;4966;48.112;9.282;2022-08-25T11:05:44;94659.50;;;27.31;45.87
9855;BME280;4966;48.112;9.282;2022-08-25T11:10:46;94650.28;;;27.69;46.21
9855;BME280;4966;48.112;9.282;2022-08-25T11:13:25;94659.38;;;27.09;45.12
9855;BME280;4966;48.112;9.282;2022-08-25T11:16:00;94652.34;;;27.56;45.60
9855;BME280;4966;48.112;9.282;2022-08-25T11:18:27;94650.63;;;27.71;45.23
9855;BME280;4966;48.112;9.282;2022-08-25T11:21:06;94653.97;;;27.92;44.75
9855;BME280;4966;48.112;9.282;2022-08-25T11:23:40;94649.72;;;27.74;45.34
9855;BME280;4966;48.112;9.282;2022-08-25T11:26:14;94642.38;;;29.44;41.07
9855;BME280;4966;48.112;9.282;2022-08-25T11:28:56;94643.81;;;30.53;36.40
9855;BME280;4966;48.112;9.282;2022-08-25T11:31:25;94642.09;;;33.10;32.88
9855;BME280;4966;48.112;9.282;2022-08-25T11:33:53;94637.19;;;36.05;28.63
9855;BME280;4966;48.112;9.282;2022-08-25T11:36:35;94634.22;;;37.02;28.20
9855;BME280;4966;48.112;9.282;2022-08-25T11:44:38;94620.78;;;39.45;23.78
9855;BME280;4966;48.112;9.282;2022-08-25T11:50:03;94619.38;;;40.75;20.61
9855;BME280;4966;48.112;9.282;2022-08-25T11:55:05;94620.34;;;41.67;20.26
9855;BME280;4966;48.112;9.282;2022-08-25T11:57:31;94623.78;;;42.18;20.39
9855;BME280;4966;48.112;9.282;2022-08-25T12:00:13;94617.50;;;42.60;17.78
9855;BME280;4966;48.112;9.282;2022-08-25T12:02:47;94627.53;;;37.28;25.13
9855;BME280;4966;48.112;9.282;2022-08-25T12:25:52;94616.88;;;38.13;23.08
9855;BME280;4966;48.112;9.282;2022-08-25T12:31:15;94609.53;;;39.59;22.61
9855;BME280;4966;48.112;9.282;2022-08-25T12:33:57;94604.94;;;39.50;22.33
9855;BME280;4966;48.112;9.282;2022-08-25T12:36:29;94601.75;;;39.89;21.23
9855;BME280;4966;48.112;9.282;2022-08-25T12:39:15;94611.78;;;40.58;21.33
9855;BME280;4966;48.112;9.282;2022-08-25T12:41:54;94603.38;;;41.55;21.18
9855;BME280;4966;48.112;9.282;2022-08-25T12:44:40;94614.47;;;39.22;22.19
9855;BME280;4966;48.112;9.282;2022-08-25T12:47:27;94609.81;;;36.39;24.86
9855;BME280;4966;48.112;9.282;2022-08-25T12:52:49;94607.28;;;33.13;28.81
9855;BME280;4966;48.112;9.282;2022-08-25T12:55:16;94599.13;;;34.26;28.25
9855;BME280;4966;48.112;9.282;2022-08-25T12:57:53;94604.00;;;36.82;23.50
9855;BME280;4966;48.112;9.282;2022-08-25T13:00:26;94600.16;;;38.56;21.49
9855;BME280;4966;48.112;9.282;2022-08-25T13:14:26;94590.78;;;41.32;18.45
9855;BME280;4966;48.112;9.282;2022-08-25T13:16:58;94581.03;;;41.86;18.03
9855;BME280;4966;48.112;9.282;2022-08-25T13:19:24;94578.78;;;41.01;17.80
9855;BME280;4966;48.112;9.282;2022-08-25T13:21:51;94586.47;;;41.25;17.61
9855;BME280;4966;48.112;9.282;2022-08-25T13:24:35;94580.75;;;43.74;16.18
9855;BME280;4966;48.112;9.282;2022-08-25T13:27:06;94579.75;;;44.66;15.21
9855;BME280;4966;48.112;9.282;2022-08-25T13:29:36;94570.59;;;45.19;14.54
9855;BME280;4966;48.112;9.282;2022-08-25T13:32:13;94575.41;;;45.70;14.35
9855;BME280;4966;48.112;9.282;2022-08-25T13:34:42;94567.56;;;45.63;13.70
9855;BME280;4966;48.112;9.282;2022-08-25T13:37:21;94571.34;;;41.30;17.10
9855;BME280;4966;48.112;9.282;2022-08-25T13:40:23;94562.38;;;43.07;16.84
9855;BME280;4966;48.112;9.282;2022-08-25T13:42:51;94562.31;;;43.91;15.79
9855;BME280;4966;48.112;9.282;2022-08-25T13:45:23;94559.41;;;44.92;14.13
9855;BME280;4966;48.112;9.282;2022-08-25T13:47:50;94553.38;;;45.27;14.40
9855;BME280;4966;48.112;9.282;2022-08-25T13:50:37;94554.47;;;45.16;14.09
9855;BME280;4966;48.112;9.282;2022-08-25T13:53:23;94558.91;;;45.32;14.35
9855;BME280;4966;48.112;9.282;2022-08-25T13:55:57;94571.41;;;47.00;13.19
9855;BME280;4966;48.112;9.282;2022-08-25T13:58:26;94559.72;;;48.06;11.44
9855;BME280;4966;48.112;9.282;2022-08-25T14:01:09;94561.00;;;48.48;11.71
9855;BME280;4966;48.112;9.282;2022-08-25T14:03:41;94551.44;;;49.44;11.53
9855;BME280;4966;48.112;9.282;2022-08-25T14:11:15;94555.88;;;48.56;12.26
9855;BME280;4966;48.112;9.282;2022-08-25T14:14:31;94554.06;;;46.27;14.77
9855;BME280;4966;48.112;9.282;2022-08-25T14:17:07;94548.69;;;42.44;18.03
9855;BME280;4966;48.112;9.282;2022-08-25T14:19:34;94542.28;;;40.99;19.71
9855;BME280;4966;48.112;9.282;2022-08-25T14:22:01;94545.84;;;38.65;21.49
9855;BME280;4966;48.112;9.282;2022-08-25T14:24:31;94547.09;;;35.97;25.60
9855;BME280;4966;48.112;9.282;2022-08-25T14:26:57;94544.00;;;35.52;27.33
9855;BME280;4966;48.112;9.282;2022-08-25T14:29:23;94544.69;;;34.46;29.22
9855;BME280;4966;48.112;9.282;2022-08-25T14:31:49;94546.75;;;35.78;27.31
9855;BME280;4966;48.112;9.282;2022-08-25T14:34:25;94545.47;;;38.80;22.58
9855;BME280;4966;48.112;9.282;2022-08-25T14:36:51;94543.38;;;38.39;23.23
9855;BME280;4966;48.112;9.282;2022-08-25T14:39:18;94546.44;;;37.88;23.22
9855;BME280;4966;48.112;9.282;2022-08-25T14:41:43;94538.16;;;39.51;21.31
9855;BME280;4966;48.112;9.282;2022-08-25T14:44:10;94538.28;;;41.67;19.41
9855;BME280;4966;48.112;9.282;2022-08-25T14:46:40;94541.81;;;42.13;18.15
9855;BME280;4966;48.112;9.282;2022-08-25T14:49:09;94529.38;;;41.97;17.97
9855;BME280;4966;48.112;9.282;2022-08-25T14:51:37;94528.59;;;41.70;18.61
9855;BME280;4966;48.112;9.282;2022-08-25T14:54:04;94523.16;;;42.94;17.61
9855;BME280;4966;48.112;9.282;2022-08-25T14:56:31;94527.38;;;44.65;16.73
9855;BME280;4966;48.112;9.282;2022-08-25T14:58:56;94522.91;;;45.77;14.78
9855;BME280;4966;48.112;9.282;2022-08-25T15:01:22;94513.53;;;46.88;14.55
9855;BME280;4966;48.112;9.282;2022-08-25T15:03:51;94508.22;;;47.10;13.41
9855;BME280;4966;48.112;9.282;2022-08-25T15:06:18;94514.03;;;46.70;13.98
9855;BME280;4966;48.112;9.282;2022-08-25T15:08:43;94511.22;;;46.54;14.63
9855;BME280;4966;48.112;9.282;2022-08-25T15:11:28;94507.44;;;46.29;13.87
9855;BME280;4966;48.112;9.282;2022-08-25T15:13:53;94501.69;;;45.57;14.73
9855;BME280;4966;48.112;9.282;2022-08-25T15:16:33;94507.59;;;45.98;14.53
9855;BME280;4966;48.112;9.282;2022-08-25T15:19:01;94512.91;;;45.01;15.67
9855;BME280;4966;48.112;9.282;2022-08-25T15:21:29;94508.19;;;45.66;13.76
9855;BME280;4966;48.112;9.282;2022-08-25T15:23:55;94510.44;;;45.06;13.82